Time;durP1;ratioP1;P1;durP2;ratioP2;P2;SDS_P1;SDS_P2;PMS_P1;PMS_P2;Temp;Humidity;BMP_temperature;BMP_pressure;BME280_temperature;BME280_humidity;BME280_pressure;Samples;Min_cycle;Max_cycle;Signal;HPM_P1;HPM_P2
2022/05/15 00:02:44;;;;;;;10.95;4.05;;;;;;;13.51;57.74;100969.05;1734194;81;21549;-72
2022/05/15 00:05:12;;;;;;;12.13;3.77;;;;;;;13.44;57.87;100969.77;1728423;81;21044;-72
2022/05/15 00:07:39;;;;;;;10.45;3.70;;;;;;;13.35;57.93;100972.28;1794448;79;21001;-78
2022/05/15 00:10:08;;;;;;;8.73;3.72;;;;;;;13.31;58.15;100975.97;1774844;79;21580;-72
2022/05/15 00:12:35;;;;;;;9.80;3.95;;;;;;;13.22;58.22;100978.94;1771898;80;21485;-73
2022/05/15 00:15:02;;;;;;;12.20;3.98;;;;;;;13.14;58.50;100986.27;1777542;78;21134;-72
2022/05/15 00:17:29;;;;;;;10.00;3.75;;;;;;;12.99;58.50;100985.06;1783066;79;21462;-72
2022/05/15 00:19:56;;;;;;;11.03;3.58;;;;;;;12.85;58.81;100982.95;1803539;79;20965;-72
2022/05/15 00:22:25;;;;;;;8.83;3.67;;;;;;;12.70;59.04;100989.64;1803688;79;21013;-72
2022/05/15 00:24:52;;;;;;;10.35;4.00;;;;;;;12.58;59.26;100986.58;1798961;79;21005;-72
2022/05/15 00:27:19;;;;;;;7.37;3.85;;;;;;;12.44;59.54;100990.59;1794147;79;21128;-77
2022/05/15 00:29:46;;;;;;;8.58;3.80;;;;;;;12.33;59.79;100994.02;1709015;82;21428;-77
2022/05/15 00:32:13;;;;;;;8.78;3.42;;;;;;;12.24;60.07;100991.72;1729115;80;21531;-72
2022/05/15 00:34:40;;;;;;;11.80;3.92;;;;;;;12.21;60.38;100993.99;1794334;78;21017;-72
2022/05/15 00:37:07;;;;;;;10.65;4.22;;;;;;;12.14;60.57;100996.45;1782749;78;21024;-72
2022/05/15 00:39:34;;;;;;;8.48;3.87;;;;;;;12.09;60.73;100994.89;1772288;81;21121;-72
2022/05/15 00:42:03;;;;;;;12.55;4.25;;;;;;;12.04;60.88;100997.20;1771816;81;21490;-73
2022/05/15 00:44:30;;;;;;;9.48;3.67;;;;;;;11.93;60.82;100998.02;1772220;79;21000;-72
2022/05/15 00:46:57;;;;;;;8.95;3.83;;;;;;;11.88;61.10;100993.81;1803919;79;21467;-77
2022/05/15 00:49:24;;;;;;;10.82;4.17;;;;;;;11.83;61.28;100999.18;1789690;78;21407;-72
2022/05/15 00:51:59;;;;;;;9.07;4.50;;;;;;;11.83;61.41;100996.55;1794270;79;21231;-72
2022/05/15 00:54:49;;;;;;;8.97;4.27;;;;;;;11.84;61.54;101000.92;1794305;79;20915;-73
2022/05/15 00:57:24;;;;;;;13.48;4.42;;;;;;;11.78;61.56;100994.55;1732762;82;21008;-72
2022/05/15 01:00:11;;;;;;;9.80;4.40;;;;;;;11.72;61.65;100999.98;1732533;81;21558;-78
2022/05/15 01:03:02;;;;;;;9.60;4.40;;;;;;;11.68;61.81;101001.00;1730897;82;21446;-73
2022/05/15 01:05:29;;;;;;;12.30;5.00;;;;;;;11.67;61.91;101007.17;1661229;83;21903;-72
2022/05/15 01:07:56;;;;;;;9.97;4.20;;;;;;;11.66;62.09;101008.06;1698790;84;21028;-72
2022/05/15 01:10:24;;;;;;;9.70;4.20;;;;;;;11.65;62.16;101012.46;1696505;84;21115;-72
2022/05/15 01:12:53;;;;;;;10.53;5.00;;;;;;;11.63;62.18;101007.70;1737211;82;21392;-74
2022/05/15 01:15:24;;;;;;;10.37;4.30;;;;;;;11.60;62.22;101010.43;1702021;82;21036;-73
2022/05/15 01:17:51;;;;;;;13.30;4.10;;;;;;;11.58;62.42;101010.50;1662289;84;21224;-72
2022/05/15 01:20:23;;;;;;;12.50;4.23;;;;;;;11.59;62.32;101011.35;1678485;85;21004;-73
2022/05/15 01:22:52;;;;;;;12.87;4.07;;;;;;;11.56;62.32;101015.39;1683023;85;21055;-73
2022/05/15 01:25:24;;;;;;;14.40;4.43;;;;;;;11.54;62.25;101014.56;1704503;82;21096;-74
2022/05/15 01:28:05;;;;;;;8.30;4.20;;;;;;;11.49;62.26;101006.83;1678475;85;21104;-75
2022/05/15 01:30:35;;;;;;;9.83;3.63;;;;;;;11.45;62.22;101010.92;1679842;83;21080;-81
2022/05/15 01:33:03;;;;;;;9.57;3.90;;;;;;;11.40;62.31;101013.68;1713087;82;21063;-72
2022/05/15 01:35:31;;;;;;;8.47;4.07;;;;;;;11.37;62.39;101012.47;1732671;81;21024;-73
2022/05/15 01:37:59;;;;;;;10.43;3.70;;;;;;;11.35;62.38;101012.95;1708704;83;20985;-73
2022/05/15 01:40:27;;;;;;;9.47;4.00;;;;;;;11.29;62.42;101010.06;1785212;79;21237;-72
2022/05/15 01:42:54;;;;;;;14.03;4.77;;;;;;;11.22;62.43;101012.45;1744613;82;21268;-73
2022/05/15 01:45:21;;;;;;;9.00;3.50;;;;;;;11.07;62.47;101012.47;1744902;82;21016;-74
2022/05/15 01:47:49;;;;;;;12.93;4.93;;;;;;;11.00;62.69;101010.06;1747012;79;22033;-72
2022/05/15 01:50:18;;;;;;;11.33;3.57;;;;;;;10.96;62.88;101009.30;1777066;80;38701;-73
2022/05/15 01:52:46;;;;;;;12.43;3.57;;;;;;;10.90;62.93;101018.20;1766800;79;21013;-73
2022/05/15 01:55:14;;;;;;;12.87;4.93;;;;;;;10.80;62.96;101018.50;1760417;81;21107;-73
2022/05/15 01:57:44;;;;;;;7.47;3.33;;;;;;;10.74;63.13;101016.06;1760051;81;20997;-72
2022/05/15 02:00:16;;;;;;;10.63;3.37;;;;;;;10.62;63.20;101022.50;1760442;81;21005;-72
2022/05/15 02:02:46;;;;;;;9.73;3.80;;;;;;;10.52;63.39;101019.72;1753257;81;21012;-72
2022/05/15 02:05:17;;;;;;;10.08;3.37;;;;;;;10.43;63.56;101020.83;1760817;81;21028;-72
2022/05/15 02:07:44;;;;;;;9.23;3.20;;;;;;;10.33;63.71;101009.71;1776661;80;21214;-73
2022/05/15 02:10:13;;;;;;;9.97;3.60;;;;;;;10.26;63.86;101012.92;1740911;82;21094;-72
2022/05/15 02:12:40;;;;;;;12.00;3.70;;;;;;;10.22;64.12;101015.19;1770715;79;21008;-72
2022/05/15 02:15:10;;;;;;;10.90;3.30;;;;;;;10.17;64.21;101016.20;1814543;79;20980;-72
2022/05/15 02:17:38;;;;;;;11.35;4.05;;;;;;;10.15;64.40;101008.86;1814518;78;20980;-77
2022/05/15 02:20:10;;;;;;;8.90;3.70;;;;;;;10.15;64.67;101009.72;1805858;77;21111;-79
2022/05/15 02:22:39;;;;;;;7.73;3.93;;;;;;;10.20;64.80;101015.70;1782509;78;21020;-72
2022/05/15 02:25:10;;;;;;;11.33;4.40;;;;;;;10.22;64.90;101015.19;1735928;82;21048;-72
2022/05/15 02:27:38;;;;;;;9.37;3.63;;;;;;;10.22;64.92;101013.88;1803281;78;21005;-76
2022/05/15 02:30:09;;;;;;;13.33;4.37;;;;;;;10.24;64.95;101019.09;1736117;82;21225;-72
2022/05/15 02:32:36;;;;;;;7.78;3.72;;;;;;;10.24;64.98;101019.09;1789832;77;27513;-78
2022/05/15 02:35:04;;;;;;;6.60;3.30;;;;;;;10.24;65.15;101022.57;1807461;77;21059;-73
2022/05/15 02:37:31;;;;;;;7.73;3.40;;;;;;;10.29;65.13;101030.81;1814007;77;21021;-73
2022/05/15 02:39:59;;;;;;;10.03;3.67;;;;;;;10.31;65.14;101030.30;1814202;79;21465;-72
2022/05/15 02:42:26;;;;;;;6.67;3.60;;;;;;;10.34;65.14;101032.41;1813252;77;21011;-75
2022/05/15 02:44:54;;;;;;;8.60;3.77;;;;;;;10.33;65.04;101033.75;1814238;78;21208;-73
2022/05/15 02:47:21;;;;;;;9.67;3.80;;;;;;;10.31;65.02;101035.54;1785200;77;21474;-79
2022/05/15 02:52:35;;;;;;;7.90;3.47;;;;;;;10.23;64.87;101039.20;1811068;77;21028;-73
2022/05/15 02:55:02;;;;;;;11.57;3.60;;;;;;;10.17;64.82;101035.44;1814296;79;20992;-73
2022/05/15 02:57:29;;;;;;;8.87;3.80;;;;;;;10.14;64.85;101041.17;1814234;79;21101;-73
2022/05/15 02:59:56;;;;;;;8.80;3.27;;;;;;;10.10;64.82;101039.55;1814039;79;20992;-78
2022/05/15 03:02:23;;;;;;;8.40;3.77;;;;;;;10.08;65.00;101042.19;1799494;77;21442;-73
2022/05/15 03:04:51;;;;;;;8.90;3.40;;;;;;;10.07;64.92;101042.24;1736457;80;21115;-73
2022/05/15 03:07:19;;;;;;;8.70;3.23;;;;;;;10.01;64.88;101040.19;1804902;79;21557;-73
2022/05/15 03:09:47;;;;;;;6.17;3.10;;;;;;;9.99;64.93;101039.80;1736368;82;21530;-73
2022/05/15 03:12:14;;;;;;;7.40;2.90;;;;;;;9.98;65.03;101044.19;1728370;82;21045;-72
2022/05/15 03:14:41;;;;;;;8.50;3.20;;;;;;;9.99;65.06;101042.42;1770509;79;21497;-74
2022/05/15 03:17:08;;;;;;;8.20;3.03;;;;;;;9.98;65.09;101046.81;1728404;83;21028;-73
2022/05/15 03:19:35;;;;;;;8.63;3.10;;;;;;;9.97;64.94;101049.45;1725294;83;21009;-73
2022/05/15 03:22:03;;;;;;;9.83;3.20;;;;;;;9.95;65.19;101049.92;1697274;82;21817;-73
2022/05/15 03:24:30;;;;;;;6.30;2.80;;;;;;;9.91;65.09;101052.22;1678869;85;21044;-76
2022/05/15 03:26:58;;;;;;;8.27;2.70;;;;;;;9.92;65.25;101060.05;1679321;85;21489;-73
2022/05/15 03:29:26;;;;;;;8.73;2.87;;;;;;;9.90;65.26;101061.84;1716240;82;21036;-74
2022/05/15 03:31:53;;;;;;;10.80;2.90;;;;;;;9.91;65.22;101058.31;1739485;82;21036;-73
2022/05/15 03:34:21;;;;;;;9.97;2.63;;;;;;;9.93;65.24;101059.15;1773120;79;21884;-73
2022/05/15 03:36:51;;;;;;;7.60;2.70;;;;;;;9.94;65.24;101060.86;1802502;79;21016;-73
2022/05/15 03:39:22;;;;;;;8.23;2.77;;;;;;;9.95;65.23;101063.91;1706911;82;21001;-73
2022/05/15 03:41:50;;;;;;;6.87;2.33;;;;;;;9.97;65.23;101071.25;1763862;81;21602;-73
2022/05/15 03:44:18;;;;;;;9.97;2.93;;;;;;;9.97;65.28;101063.85;1748308;81;21040;-74
2022/05/15 03:46:47;;;;;;;10.00;3.13;;;;;;;10.01;65.37;101065.52;1734791;82;21469;-72
2022/05/15 03:49:14;;;;;;;8.33;2.70;;;;;;;10.03;65.26;101069.83;1735621;81;21037;-72
2022/05/15 03:51:42;;;;;;;8.30;2.40;;;;;;;10.02;65.24;101064.61;1734573;82;21487;-75
2022/05/15 03:54:09;;;;;;;7.77;2.93;;;;;;;10.02;65.24;101074.63;1755762;81;21010;-74
2022/05/15 03:56:50;;;;;;;6.20;2.83;;;;;;;10.05;65.48;101078.94;1734441;82;21034;-73
2022/05/15 03:59:29;;;;;;;7.30;2.43;;;;;;;10.09;65.34;101071.44;1749276;81;21477;-73
2022/05/15 04:01:56;;;;;;;6.53;2.67;;;;;;;10.07;65.18;101074.98;1751033;81;20981;-77
2022/05/15 04:04:25;;;;;;;8.23;2.50;;;;;;;10.07;65.26;101079.77;1741321;81;21045;-77
2022/05/15 04:06:52;;;;;;;7.27;2.77;;;;;;;10.07;65.36;101088.94;1741344;81;21021;-73
2022/05/15 04:09:21;;;;;;;8.67;2.67;;;;;;;10.11;65.48;101083.16;1741441;81;20960;-78
2022/05/15 04:11:49;;;;;;;6.17;2.63;;;;;;;10.14;65.51;101084.40;1756333;81;21124;-76
2022/05/15 04:14:17;;;;;;;8.53;2.70;;;;;;;10.14;65.53;101083.97;1697546;84;21053;-72
2022/05/15 04:16:43;;;;;;;9.13;3.07;;;;;;;10.20;65.70;101088.20;1705275;84;21028;-72
2022/05/15 04:19:11;;;;;;;11.40;2.80;;;;;;;10.25;65.74;101092.44;1670041;84;21027;-76
2022/05/15 04:21:42;;;;;;;8.10;2.70;;;;;;;10.31;65.66;101091.88;1744579;82;21000;-72
2022/05/15 04:24:12;;;;;;;8.83;3.80;;;;;;;10.34;65.70;101096.61;1744665;82;21123;-71
2022/05/15 04:26:40;;;;;;;;;;;;;;;10.41;65.79;101090.75;1757535;80;21013;-73
2022/05/15 04:29:08;;;;;;;5.93;2.77;;;;;;;10.47;65.90;101099.34;1762856;80;20164;-72
2022/05/15 04:31:35;;;;;;;6.70;2.90;;;;;;;10.49;65.74;101098.83;1699499;83;21036;-72
2022/05/15 04:34:03;;;;;;;8.13;2.77;;;;;;;10.54;65.95;101103.96;1767137;80;21554;-74
2022/05/15 04:36:30;;;;;;;7.23;2.67;;;;;;;10.61;65.89;101105.51;1705575;82;21499;-73
2022/05/15 04:38:59;;;;;;;7.23;2.93;;;;;;;10.66;65.92;101108.02;1752914;79;21006;-72
2022/05/15 04:41:26;;;;;;;12.50;3.20;;;;;;;10.70;65.97;101109.22;1759431;79;21040;-73
2022/05/15 04:43:53;;;;;;;7.23;2.80;;;;;;;10.77;66.08;101111.22;1696500;83;21032;-72
2022/05/15 04:46:21;;;;;;;9.23;3.07;;;;;;;10.80;66.00;101108.52;1725796;82;21064;-73
2022/05/15 04:48:48;;;;;;;7.47;2.90;;;;;;;10.85;65.96;101115.81;1682697;83;21171;-76
2022/05/15 04:51:15;;;;;;;9.97;3.00;;;;;;;10.89;66.00;101118.78;1708520;84;21035;-73
2022/05/15 04:53:42;;;;;;;7.83;2.60;;;;;;;10.92;65.98;101118.70;1704684;83;21020;-72
2022/05/15 04:56:09;;;;;;;9.77;2.90;;;;;;;10.98;66.10;101120.29;1698732;83;21001;-73
2022/05/15 04:58:36;;;;;;;10.13;3.03;;;;;;;11.06;66.09;101120.09;1685131;83;21001;-74
2022/05/15 05:01:03;;;;;;;8.80;2.60;;;;;;;11.11;66.00;101118.17;1733379;81;21105;-75
2022/05/15 05:03:30;;;;;;;9.40;2.90;;;;;;;11.18;66.02;101124.13;1703512;82;21099;-74
2022/05/15 05:05:57;;;;;;;7.90;2.77;;;;;;;11.24;65.89;101122.64;1692925;82;21579;-74
2022/05/15 05:08:24;;;;;;;9.17;2.33;;;;;;;11.31;65.99;101125.05;1699409;82;21005;-77
2022/05/15 05:10:51;;;;;;;6.67;2.27;;;;;;;11.39;65.95;101125.69;1764135;79;21102;-74
2022/05/15 05:13:18;;;;;;;9.07;2.73;;;;;;;11.48;65.80;101132.44;1784581;78;21813;-74
2022/05/15 05:15:45;;;;;;;7.83;2.67;;;;;;;11.54;65.57;101131.40;1700883;84;21020;-77
2022/05/15 05:18:17;;;;;;;6.23;2.40;;;;;;;11.61;65.62;101136.86;1803266;78;20982;-73
2022/05/15 05:20:46;;;;;;;7.17;2.70;;;;;;;11.68;65.47;101137.09;1772850;79;21024;-75
2022/05/15 05:23:13;;;;;;;7.20;2.60;;;;;;;11.74;65.28;101138.68;1770576;81;21016;-73
2022/05/15 05:25:41;;;;;;;6.03;2.10;;;;;;;11.79;65.23;101144.20;1792728;79;21189;-81
2022/05/15 05:28:09;;;;;;;10.60;2.87;;;;;;;11.84;65.16;101143.61;1803713;79;20985;-74
2022/05/15 05:30:37;;;;;;;8.07;2.63;;;;;;;11.91;65.16;101148.24;1775394;78;21505;-77
2022/05/15 05:33:06;;;;;;;6.03;2.30;;;;;;;11.98;65.14;101147.16;1789094;79;20988;-75
2022/05/15 05:35:36;;;;;;;6.47;2.70;;;;;;;12.05;65.07;101148.70;1795466;79;21055;-74
2022/05/15 05:38:04;;;;;;;6.12;2.50;;;;;;;12.14;64.90;101155.86;1803509;79;21118;-79
2022/05/15 05:40:31;;;;;;;7.00;2.60;;;;;;;12.19;64.71;101153.95;1803755;79;21099;-79
2022/05/15 05:42:58;;;;;;;6.83;3.00;;;;;;;12.24;64.61;101151.58;1803546;79;21099;-77
2022/05/15 05:45:25;;;;;;;8.83;3.10;;;;;;;12.31;64.55;101148.33;1803931;79;21001;-73
2022/05/15 05:47:54;;;;;;;7.90;3.17;;;;;;;12.36;64.38;101159.55;1792580;79;21553;-73
2022/05/15 05:50:24;;;;;;;11.63;3.65;;;;;;;12.40;64.32;101158.99;1802662;79;21975;-77
2022/05/15 05:52:54;;;;;;;6.37;2.90;;;;;;;12.45;64.33;101158.39;1783205;79;21000;-79
2022/05/15 05:55:22;;;;;;;10.18;3.65;;;;;;;12.49;64.38;101158.22;1776932;79;21031;-78
2022/05/15 05:57:49;;;;;;;11.27;3.37;;;;;;;12.55;64.14;101165.51;1780809;79;21028;-77
2022/05/15 06:00:27;;;;;;;7.28;3.25;;;;;;;12.55;64.06;101156.30;1788805;79;21051;-78
2022/05/15 06:04:39;;;;;;;9.58;3.55;;;;;;;12.57;64.06;101159.75;1796472;79;21092;-79
2022/05/15 06:05:24;;;;;;;7.23;3.13;;;;;;;12.59;64.00;101164.05;1777462;79;21013;-79
2022/05/15 06:07:51;;;;;;;10.35;3.42;;;;;;;12.64;64.05;101169.17;1787478;79;21066;-79
2022/05/15 06:10:18;;;;;;;8.18;4.03;;;;;;;12.68;63.85;101172.09;1762439;79;20988;-76
2022/05/15 06:12:45;;;;;;;8.28;3.33;;;;;;;12.68;63.84;101174.72;1805621;79;21040;-77
2022/05/15 06:15:13;;;;;;;10.25;3.00;;;;;;;12.75;63.95;101179.30;1739600;80;21124;-77
2022/05/15 06:17:42;;;;;;;10.15;3.10;;;;;;;12.82;64.09;101178.20;1752502;80;21518;-77
2022/05/15 06:20:10;;;;;;;11.95;3.75;;;;;;;12.87;63.83;101171.87;1768899;77;22188;-77
2022/05/15 06:22:38;;;;;;;6.28;3.37;;;;;;;12.92;63.89;101175.67;1805232;77;21029;-77
2022/05/15 06:25:06;;;;;;;8.85;3.27;;;;;;;12.97;63.73;101182.06;1738273;81;21054;-77
2022/05/15 06:27:35;;;;;;;9.38;3.62;;;;;;;13.01;63.77;101177.97;1737477;80;21806;-76
2022/05/15 06:30:02;;;;;;;10.23;2.95;;;;;;;13.07;63.78;101176.90;1734536;82;21039;-77
2022/05/15 06:32:29;;;;;;;8.08;2.70;;;;;;;13.13;63.70;101177.53;1736713;80;21052;-76
2022/05/15 06:34:57;;;;;;;6.80;2.98;;;;;;;13.17;63.62;101179.16;1745771;81;21022;-77
2022/05/15 06:37:24;;;;;;;9.55;2.75;;;;;;;13.24;63.68;101180.25;1745062;80;21059;-76
2022/05/15 06:39:51;;;;;;;9.93;2.75;;;;;;;13.30;63.65;101180.94;1748826;79;21339;-76
2022/05/15 06:42:18;;;;;;;7.70;2.55;;;;;;;13.34;63.50;101172.00;1764821;79;20998;-81
2022/05/15 06:44:45;;;;;;;6.30;2.30;;;;;;;13.40;63.38;101178.81;1787864;79;21017;-75
2022/05/15 06:47:12;;;;;;;5.85;2.10;;;;;;;13.45;63.19;101179.98;1742188;80;20987;-75
2022/05/15 06:49:39;;;;;;;9.30;2.47;;;;;;;13.49;63.03;101186.37;1770313;79;20997;-76
2022/05/15 06:52:07;;;;;;;6.53;2.15;;;;;;;13.53;62.79;101183.19;1759480;79;21298;-77
2022/05/15 06:54:34;;;;;;;9.53;2.62;;;;;;;13.59;62.97;101185.59;1723422;81;21079;-76
2022/05/15 06:59:47;;;;;;;8.15;2.67;;;;;;;13.78;62.83;101181.81;1742363;80;21035;-76
2022/05/15 07:02:15;;;;;;;5.37;2.60;;;;;;;13.79;62.46;101180.42;1729424;81;21470;-76
2022/05/15 07:04:43;;;;;;;7.60;2.47;;;;;;;13.83;62.42;101179.87;1744810;82;21875;-76
2022/05/15 07:07:10;;;;;;;4.83;1.87;;;;;;;13.86;62.25;101174.95;1749118;80;21041;-76
2022/05/15 07:09:37;;;;;;;5.17;2.05;;;;;;;13.90;62.01;101175.21;1774173;79;21036;-77
2022/05/15 07:12:07;;;;;;;7.20;2.05;;;;;;;13.94;62.13;101177.69;1764992;80;20974;-76
2022/05/15 07:14:35;;;;;;;;;;;;;;;13.99;61.99;101176.16;1761564;79;21916;-76
2022/05/15 07:17:02;;;;;;;5.25;2.12;;;;;;;14.01;61.55;101172.55;1771629;79;21126;-76
2022/05/15 07:19:29;;;;;;;7.12;2.15;;;;;;;14.01;61.70;101173.02;1775326;80;21032;-76
2022/05/15 07:21:57;;;;;;;7.22;2.47;;;;;;;14.09;61.64;101176.22;1736824;81;21548;-76
2022/05/15 07:24:25;;;;;;;8.45;1.98;;;;;;;14.17;61.51;101174.60;1806689;79;20920;-75
2022/05/15 07:26:53;;;;;;;6.55;2.00;;;;;;;14.26;61.35;101179.50;1814637;78;21020;-76
2022/05/15 07:29:24;;;;;;;5.58;1.50;;;;;;;14.34;61.28;101173.45;1814294;79;21088;-76
2022/05/15 07:31:51;;;;;;;5.45;2.10;;;;;;;14.45;60.84;101173.88;1813889;78;21509;-76
2022/05/15 07:34:19;;;;;;;4.37;1.85;;;;;;;14.50;60.69;101172.39;1814278;78;21036;-75
2022/05/15 07:36:50;;;;;;;5.85;1.87;;;;;;;14.57;60.53;101173.02;1814121;78;21032;-76
2022/05/15 07:39:15;;;;;;;4.28;1.57;;;;;;;14.62;60.51;101178.96;1813990;78;20996;-76
2022/05/15 07:41:51;;;;;;;8.20;1.82;;;;;;;14.71;60.22;101166.26;1814084;78;21957;-76
2022/05/15 07:44:20;;;;;;;5.90;1.67;;;;;;;14.84;60.49;101170.53;1814029;78;21399;-75
2022/05/15 07:46:48;;;;;;;4.22;1.70;;;;;;;14.99;60.20;101167.69;1814062;79;20981;-76
2022/05/15 07:49:16;;;;;;;4.60;1.62;;;;;;;15.06;59.64;101169.16;1814370;78;21031;-84
2022/05/15 07:51:47;;;;;;;4.53;1.40;;;;;;;15.09;59.63;101165.05;1812516;78;21102;-76
2022/05/15 07:54:17;;;;;;;5.03;1.77;;;;;;;15.19;59.46;101165.53;1805859;78;21098;-75
2022/05/15 07:56:45;;;;;;;4.62;1.35;;;;;;;15.28;59.17;101165.58;1813824;78;20976;-77
2022/05/15 07:59:13;;;;;;;5.25;1.40;;;;;;;15.39;58.91;101171.24;1803947;77;21015;-77
2022/05/15 08:01:41;;;;;;;4.33;1.47;;;;;;;15.55;58.67;101168.77;1739161;82;20997;-77
2022/05/15 08:04:09;;;;;;;3.95;1.15;;;;;;;15.64;57.94;101170.98;1745702;81;21524;-75
2022/05/15 08:09:21;;;;;;;5.12;1.00;;;;;;;15.84;57.43;101167.45;1742629;82;21075;-76
2022/05/15 08:11:49;;;;;;;4.17;1.15;;;;;;;15.95;56.83;101167.80;1728972;82;20993;-75
2022/05/15 08:14:18;;;;;;;3.95;1.17;;;;;;;16.08;56.76;101175.17;1727362;82;21126;-76
2022/05/15 08:16:46;;;;;;;4.17;1.20;;;;;;;16.13;56.29;101164.76;1711325;81;20970;-76
2022/05/15 08:24:46;;;;;;;2.60;1.02;;;;;;;16.50;55.23;101167.77;1719760;82;20987;-75
2022/05/15 08:27:13;;;;;;;1.92;0.70;;;;;;;16.63;54.80;101171.16;1716220;81;21067;-76
2022/05/15 08:29:41;;;;;;;2.85;0.85;;;;;;;16.69;54.35;101163.75;1712588;82;21148;-75
2022/05/15 08:32:09;;;;;;;2.62;0.80;;;;;;;16.75;54.00;101168.34;1786681;79;21139;-75
2022/05/15 08:34:36;;;;;;;3.02;1.00;;;;;;;16.82;53.94;101169.77;1785607;79;21020;-75
2022/05/15 08:37:04;;;;;;;5.22;1.22;;;;;;;16.87;52.94;101169.06;1792840;79;21032;-77
2022/05/15 08:39:31;;;;;;;1.72;0.70;;;;;;;16.82;52.89;101154.77;1713537;82;20945;-76
2022/05/15 08:42:25;;;;;;;3.10;0.82;;;;;;;17.05;53.01;101165.96;1794346;79;21008;-77
2022/05/15 08:44:56;;;;;;;6.25;0.95;;;;;;;17.17;52.25;101170.60;1784152;79;21138;-76
2022/05/15 08:47:47;;;;;;;2.42;0.80;;;;;;;17.13;51.46;101176.54;1713632;81;20943;-76
2022/05/15 08:50:18;;;;;;;;;;;;;;;17.13;51.29;101167.74;1780440;79;21016;-75
2022/05/15 08:53:11;;;;;;;2.87;0.90;;;;;;;17.22;50.73;101163.75;1789841;78;20169;-76
2022/05/15 08:55:45;;;;;;;2.47;0.80;;;;;;;17.25;50.72;101169.73;1803175;79;20973;-72
2022/05/15 08:58:20;;;;;;;3.55;1.00;;;;;;;17.31;50.84;101172.53;1803745;79;21903;-77
2022/05/15 09:00:53;;;;;;;4.37;1.20;;;;;;;17.44;50.49;101172.75;1802679;79;21568;-75
2022/05/15 09:03:31;;;;;;;2.02;0.93;;;;;;;17.49;50.52;101175.53;1800037;79;21003;-77
2022/05/15 09:06:15;;;;;;;4.40;1.00;;;;;;;17.61;49.98;101176.66;1779362;79;21050;-75
2022/05/15 09:09:34;;;;;;;3.45;1.12;;;;;;;17.70;49.80;101178.80;1782990;79;21137;-75
2022/05/15 09:12:21;;;;;;;1.95;0.70;;;;;;;17.84;49.50;101168.80;1789170;79;21940;-77
2022/05/15 09:15:06;;;;;;;2.60;0.85;;;;;;;18.04;49.51;101172.55;1802040;77;21531;-74
2022/05/15 09:18:00;;;;;;;3.37;1.00;;;;;;;18.22;48.89;101173.30;1784734;77;21020;-75
2022/05/15 09:20:57;;;;;;;3.75;1.20;;;;;;;18.33;48.78;101171.36;1795252;77;21057;-77
2022/05/15 09:23:34;;;;;;;3.22;0.90;;;;;;;18.52;48.57;101173.81;1802066;78;21027;-78
2022/05/15 09:26:20;;;;;;;2.47;0.80;;;;;;;18.62;47.94;101170.14;1811371;78;21930;-76
2022/05/15 09:29:05;;;;;;;2.17;0.93;;;;;;;18.73;47.82;101172.57;1731608;82;21068;-78
2022/05/15 09:31:42;;;;;;;4.05;0.98;;;;;;;18.82;47.14;101180.98;1794817;78;21063;-77
2022/05/15 09:34:34;;;;;;;4.20;1.00;;;;;;;18.79;46.55;101170.50;1795982;77;21012;-76
2022/05/15 09:40:21;;;;;;;2.55;1.00;;;;;;;18.93;46.59;101166.10;1785276;78;21185;-79
2022/05/15 09:46:01;;;;;;;3.83;1.00;;;;;;;19.35;46.49;101168.42;1795915;78;21012;-75
2022/05/15 09:48:52;;;;;;;4.25;1.42;;;;;;;19.54;45.96;101165.48;1730103;82;21008;-79
2022/05/15 09:51:45;;;;;;;;;;;;;;;19.71;45.85;101173.77;1715399;82;21475;-76
2022/05/15 09:54:36;;;;;;;2.37;1.22;;;;;;;19.70;44.71;101176.02;1718227;82;21193;-79
2022/05/15 09:57:26;;;;;;;4.25;1.10;;;;;;;19.70;44.69;101172.03;1720301;80;21051;-78
2022/05/15 10:00:03;;;;;;;3.35;1.00;;;;;;;19.85;44.72;101174.70;1731322;82;21113;-77
2022/05/15 10:02:49;;;;;;;2.30;0.95;;;;;;;19.92;44.44;101169.35;1742183;82;21021;-77
2022/05/15 10:05:21;;;;;;;3.45;0.80;;;;;;;20.10;44.49;101172.17;1718083;82;22066;-75
2022/05/15 10:08:05;;;;;;;5.80;1.07;;;;;;;20.36;44.35;101167.80;1739299;82;21898;-75
2022/05/15 10:10:40;;;;;;;4.15;0.90;;;;;;;20.57;44.08;101175.36;1741927;82;21487;-75
2022/05/15 10:13:12;;;;;;;2.98;0.90;;;;;;;20.76;43.81;101162.52;1740261;82;21513;-75
2022/05/15 10:15:44;;;;;;;2.95;0.80;;;;;;;20.99;43.45;101156.94;1734854;82;21076;-75
2022/05/15 10:18:25;;;;;;;2.25;0.80;;;;;;;21.18;43.07;101157.86;1735009;82;21460;-75
2022/05/15 10:20:55;;;;;;;5.72;1.30;;;;;;;21.46;43.04;101159.96;1734672;82;21136;-74
2022/05/15 10:23:33;;;;;;;2.17;0.80;;;;;;;21.67;42.62;101157.56;1734877;82;20999;-75
2022/05/15 10:26:05;;;;;;;1.98;0.85;;;;;;;21.85;42.57;101156.73;1731558;82;20980;-77
2022/05/15 10:28:54;;;;;;;3.30;1.00;;;;;;;22.08;41.84;101164.39;1734746;82;21018;-77
2022/05/15 10:31:29;;;;;;;3.20;0.90;;;;;;;22.12;41.01;101164.06;1734392;82;21214;-75
2022/05/15 10:34:06;;;;;;;2.40;0.98;;;;;;;22.17;40.98;101152.56;1734748;82;21113;-75
2022/05/15 10:36:57;;;;;;;2.12;0.78;;;;;;;22.38;40.64;101150.14;1732577;82;21556;-76
2022/05/15 10:40:01;;;;;;;2.20;0.78;;;;;;;22.54;40.56;101149.84;1734921;82;21004;-78
2022/05/15 10:43:00;;;;;;;4.00;0.90;;;;;;;22.63;40.02;101141.13;1727983;82;21485;-77
2022/05/15 10:45:57;;;;;;;3.47;1.15;;;;;;;22.74;39.72;101144.31;1792240;78;21067;-76
2022/05/15 10:49:01;;;;;;;2.45;0.93;;;;;;;22.90;39.15;101136.83;1799373;78;21792;-79
2022/05/15 10:51:53;;;;;;;3.47;1.07;;;;;;;23.08;39.10;101139.06;1777919;80;21167;-76
2022/05/15 10:57:50;;;;;;;2.25;1.00;;;;;;;23.47;38.35;101130.20;1782175;78;21019;-76
2022/05/15 11:00:54;;;;;;;1.57;0.80;;;;;;;23.60;38.04;101141.14;1807277;78;21060;-75
2022/05/15 11:03:53;;;;;;;1.90;0.72;;;;;;;23.75;37.68;101132.41;1779723;80;21106;-78
2022/05/15 11:06:49;;;;;;;3.90;1.35;;;;;;;23.86;37.22;101123.98;1768032;80;21019;-76
2022/05/15 11:09:28;;;;;;;2.27;0.80;;;;;;;24.02;37.16;101126.61;1777953;79;21018;-78
2022/05/15 11:12:37;;;;;;;2.80;0.80;;;;;;;23.85;36.67;101127.15;1781188;80;21670;-77
2022/05/15 11:15:14;;;;;;;2.22;0.80;;;;;;;23.93;36.67;101122.02;1750654;82;21055;-75
2022/05/15 11:25:30;;;;;;;3.90;1.00;;;;;;;24.71;35.93;101099.41;1849951;77;28822;-76
2022/05/15 11:28:09;;;;;;;5.05;0.93;;;;;;;24.70;35.58;101093.70;1821599;78;21028;-80
2022/05/15 11:30:44;;;;;;;2.15;0.88;;;;;;;24.80;35.65;101094.25;1821587;78;21057;-76
2022/05/15 11:33:32;;;;;;;1.52;0.68;;;;;;;24.81;34.95;101095.47;1821912;78;21027;-75
2022/05/15 11:36:17;;;;;;;3.10;1.10;;;;;;;24.90;34.96;101087.12;1821896;78;21043;-77
2022/05/15 11:38:54;;;;;;;3.47;1.05;;;;;;;25.07;34.72;101084.30;1822004;78;21024;-76
2022/05/15 11:41:42;;;;;;;2.45;0.80;;;;;;;25.25;34.46;101083.23;1793577;78;21087;-79
2022/05/15 11:44:18;;;;;;;3.02;0.70;;;;;;;25.47;33.87;101088.85;1818004;78;21749;-78
2022/05/15 11:46:51;;;;;;;4.15;0.95;;;;;;;25.58;33.35;101088.78;1818626;78;21016;-75
2022/05/15 11:49:38;;;;;;;3.10;0.70;;;;;;;25.73;32.85;101079.82;1822167;78;21027;-76
2022/05/15 11:52:14;;;;;;;2.80;0.93;;;;;;;25.75;32.56;101072.48;1821899;78;21044;-75
2022/05/15 11:54:49;;;;;;;4.65;1.00;;;;;;;25.78;32.28;101079.77;1821373;78;21096;-76
2022/05/15 11:57:36;;;;;;;1.82;0.88;;;;;;;25.88;32.21;101076.27;1792656;78;21113;-76
2022/05/15 12:00:08;;;;;;;2.15;1.00;;;;;;;26.01;32.24;101072.81;1821233;78;21023;-80
2022/05/15 12:02:44;;;;;;;3.52;1.02;;;;;;;26.11;32.07;101069.64;1792900;78;21039;-81
2022/05/15 12:05:40;;;;;;;3.08;0.85;;;;;;;26.22;32.00;101073.53;1821130;78;20995;-77
2022/05/15 12:08:28;;;;;;;2.15;1.00;;;;;;;26.30;31.86;101062.08;1817531;78;21007;-76
2022/05/15 12:10:58;;;;;;;1.80;0.68;;;;;;;26.25;31.90;101065.19;1821828;78;21167;-76
2022/05/15 12:13:34;;;;;;;2.12;0.72;;;;;;;26.22;31.66;101068.16;1821829;78;21502;-76
2022/05/15 12:16:25;;;;;;;1.47;0.80;;;;;;;26.06;31.30;101058.97;1821906;78;21047;-76
2022/05/15 12:19:24;;;;;;;2.40;0.70;;;;;;;25.89;31.51;101058.68;1820469;78;21007;-76
2022/05/15 12:21:56;;;;;;;2.13;0.63;;;;;;;25.54;31.02;101053.78;1820596;78;21086;-76